Time;durP1;ratioP1;P1;durP2;ratioP2;P2;SDS_P1;SDS_P2;PMS_P1;PMS_P2;Temp;Humidity;BMP_temperature;BMP_pressure;BME280_temperature;BME280_humidity;BME280_pressure;Samples;Min_cycle;Max_cycle;Signal;HPM_P1;HPM_P2
2023/06/06 00:02:22;;;;;;;11.40;8.77;;;;;;;15.05;70.51;101788.81;3580894;39;20123;-65
2023/06/06 00:04:49;;;;;;;13.02;8.98;;;;;;;15.02;70.06;101780.88;3586972;39;20071;-66
2023/06/06 00:07:16;;;;;;;10.95;8.82;;;;;;;14.96;70.45;101792.97;3586229;39;20066;-66
2023/06/06 00:09:43;;;;;;;11.07;8.63;;;;;;;14.95;70.48;101788.53;3583193;39;20066;-66
2023/06/06 00:12:12;;;;;;;12.32;8.57;;;;;;;14.93;70.07;101786.91;3583435;39;20060;-66
2023/06/06 00:14:41;;;;;;;10.95;8.93;;;;;;;14.92;70.55;101779.75;3584912;39;20067;-66
2023/06/06 00:17:09;;;;;;;11.63;9.02;;;;;;;14.87;70.50;101782.75;3576666;39;20056;-66
2023/06/06 00:19:40;;;;;;;13.48;8.73;;;;;;;14.85;70.28;101784.69;3584078;39;20327;-66
2023/06/06 00:22:07;;;;;;;12.40;8.90;;;;;;;14.68;70.48;101749.72;3586692;39;20486;-66
2023/06/06 00:24:32;;;;;;;12.00;8.65;;;;;;;14.69;70.75;101762.31;3585783;39;20394;-66
2023/06/06 00:26:58;;;;;;;13.43;9.43;;;;;;;14.72;70.40;101783.75;3584675;39;20114;-66
2023/06/06 00:29:24;;;;;;;13.75;8.90;;;;;;;14.71;70.81;101782.84;3584075;39;20381;-67
2023/06/06 00:31:49;;;;;;;12.52;9.02;;;;;;;14.69;70.76;101782.09;3583745;39;20095;-66
2023/06/06 00:34:15;;;;;;;13.07;8.68;;;;;;;14.61;70.76;101779.88;3586220;39;20519;-66
2023/06/06 00:36:41;;;;;;;9.82;8.68;;;;;;;14.59;70.87;101773.72;3570944;39;20052;-66
2023/06/06 00:39:06;;;;;;;13.00;8.77;;;;;;;14.48;71.07;101761.78;3582938;39;20065;-66
2023/06/06 00:41:32;;;;;;;11.65;8.98;;;;;;;14.25;71.15;101730.78;3574327;39;20460;-66
2023/06/06 00:43:58;;;;;;;14.40;9.13;;;;;;;14.44;71.36;101766.53;3585031;39;20103;-66
2023/06/06 00:46:24;;;;;;;13.98;8.45;;;;;;;14.28;71.39;101741.41;3583568;39;20366;-67
2023/06/06 00:48:51;;;;;;;12.25;9.10;;;;;;;14.44;71.26;101785.47;3582025;39;20071;-66
2023/06/06 00:51:17;;;;;;;11.77;8.90;;;;;;;14.37;71.41;101779.56;3582867;39;20044;-66
2023/06/06 00:53:44;;;;;;;10.73;8.95;;;;;;;14.36;71.47;101779.66;3580667;39;20116;-66
2023/06/06 00:56:13;;;;;;;12.48;8.45;;;;;;;14.30;71.34;101775.53;3586323;39;20399;-66
2023/06/06 00:58:41;;;;;;;11.10;8.90;;;;;;;14.30;71.95;101785.44;3575652;39;20091;-66
2023/06/06 01:01:09;;;;;;;12.95;9.32;;;;;;;14.28;72.31;101779.28;3585060;39;20124;-67
2023/06/06 01:03:34;;;;;;;11.90;8.93;;;;;;;14.24;71.80;101780.41;3583730;39;20090;-67
2023/06/06 01:06:01;;;;;;;13.90;9.68;;;;;;;14.00;71.93;101751.22;3582060;39;20331;-67
2023/06/06 01:08:26;;;;;;;17.90;9.57;;;;;;;14.14;72.09;101781.00;3583325;39;20079;-66
2023/06/06 01:11:09;;;;;;;12.73;8.98;;;;;;;14.08;72.78;101770.56;3585504;39;20492;-66
2023/06/06 01:14:05;;;;;;;14.63;9.43;;;;;;;14.08;72.60;101775.06;3585638;39;20048;-67
2023/06/06 01:16:34;;;;;;;13.80;9.13;;;;;;;13.88;72.52;101752.84;3582258;39;20065;-66
2023/06/06 01:19:04;;;;;;;14.82;9.85;;;;;;;13.94;72.86;101765.13;3582138;39;20050;-66
2023/06/06 01:21:41;;;;;;;13.70;9.05;;;;;;;13.94;72.84;101779.50;3584695;39;20111;-66
2023/06/06 01:24:08;;;;;;;13.95;9.63;;;;;;;13.91;72.83;101781.53;3583940;39;20322;-66
2023/06/06 01:26:34;;;;;;;15.18;10.02;;;;;;;13.85;72.91;101762.97;3584599;40;20386;-66
2023/06/06 01:28:59;;;;;;;14.60;9.68;;;;;;;13.87;72.96;101774.56;3581280;39;20164;-66
2023/06/06 01:31:38;;;;;;;11.88;9.02;;;;;;;13.43;73.35;101711.44;3582776;39;20483;-66
2023/06/06 01:34:20;;;;;;;12.48;8.85;;;;;;;13.79;73.34;101774.16;3584056;39;20044;-67
2023/06/06 01:37:06;;;;;;;10.73;8.98;;;;;;;13.72;73.75;101770.94;3582691;39;20149;-68
2023/06/06 01:39:38;;;;;;;15.27;9.68;;;;;;;13.62;73.93;101776.03;3582500;39;20113;-67
2023/06/06 01:42:06;;;;;;;14.95;9.43;;;;;;;13.63;73.82;101777.75;3583165;39;20411;-67
2023/06/06 01:44:36;;;;;;;12.70;9.60;;;;;;;13.61;74.00;101787.81;3583130;39;20047;-65
2023/06/06 01:47:03;;;;;;;16.30;9.57;;;;;;;13.50;74.26;101774.06;3581776;39;20055;-66
2023/06/06 01:49:29;;;;;;;15.40;9.90;;;;;;;13.40;74.72;101753.97;3583290;39;20043;-65
2023/06/06 01:51:55;;;;;;;14.20;9.38;;;;;;;13.54;74.04;101777.44;3583914;39;20125;-66
2023/06/06 01:54:21;;;;;;;12.48;9.73;;;;;;;13.49;74.70;101780.44;3582959;39;20137;-66
2023/06/06 01:56:46;;;;;;;12.57;10.10;;;;;;;13.43;74.63;101778.94;3573393;40;20398;-66
2023/06/06 01:59:12;;;;;;;11.45;9.13;;;;;;;13.30;74.33;101752.75;3581225;39;20100;-65
2023/06/06 02:01:38;;;;;;;11.73;9.10;;;;;;;13.41;74.04;101780.84;3581207;39;20068;-65
2023/06/06 02:04:03;;;;;;;11.88;9.68;;;;;;;13.38;74.16;101782.88;3582588;39;20504;-65
2023/06/06 02:06:30;;;;;;;13.18;9.57;;;;;;;13.33;74.98;101772.34;3578025;39;20060;-66
2023/06/06 02:08:55;;;;;;;11.73;9.18;;;;;;;13.29;74.46;101773.50;3583668;39;20059;-66
2023/06/06 02:11:23;;;;;;;12.32;9.32;;;;;;;13.28;75.17;101784.38;3583565;39;20067;-66
2023/06/06 02:13:50;;;;;;;12.77;9.50;;;;;;;13.04;74.73;101744.31;3585260;39;20051;-66
2023/06/06 02:16:17;;;;;;;12.57;9.05;;;;;;;13.22;75.22;101777.47;3590769;39;20053;-65
2023/06/06 02:18:44;;;;;;;12.30;9.07;;;;;;;12.45;75.23;101654.16;3582279;39;20056;-66
2023/06/06 02:21:12;;;;;;;13.13;9.02;;;;;;;13.15;75.56;101776.94;3583444;39;20050;-66
2023/06/06 02:23:39;;;;;;;12.90;8.93;;;;;;;13.14;74.99;101780.59;3587555;39;20136;-66
2023/06/06 02:26:04;;;;;;;13.13;9.30;;;;;;;13.11;75.33;101780.78;3581739;39;20052;-67
2023/06/06 02:28:30;;;;;;;14.77;9.80;;;;;;;13.06;74.92;101776.59;3582839;39;20051;-66
2023/06/06 02:30:56;;;;;;;15.32;9.25;;;;;;;13.01;75.63;101780.44;3583983;39;20048;-66
2023/06/06 02:33:22;;;;;;;13.23;9.55;;;;;;;12.94;76.10;101784.47;3585003;39;20386;-67
2023/06/06 02:35:50;;;;;;;13.43;9.63;;;;;;;12.93;75.60;101781.81;3583117;39;20489;-66
2023/06/06 02:38:16;;;;;;;12.27;9.73;;;;;;;12.90;76.17;101777.47;3584396;39;20064;-66
2023/06/06 02:40:42;;;;;;;15.98;9.40;;;;;;;12.88;76.30;101778.53;3579832;39;20119;-66
2023/06/06 02:43:07;;;;;;;11.70;8.98;;;;;;;12.82;76.10;101774.34;3578617;39;20151;-67
2023/06/06 02:45:34;;;;;;;15.05;10.18;;;;;;;12.80;75.87;101772.69;3582311;39;20074;-67
2023/06/06 02:48:00;;;;;;;12.65;9.18;;;;;;;12.82;76.49;101779.75;3584092;39;20059;-67
2023/06/06 02:50:28;;;;;;;13.57;9.45;;;;;;;12.82;75.73;101778.88;3583156;39;20373;-67
2023/06/06 02:52:55;;;;;;;12.82;8.82;;;;;;;12.70;76.16;101770.50;3583647;39;20063;-66
2023/06/06 02:55:20;;;;;;;13.90;9.65;;;;;;;12.73;76.54;101780.25;3582147;40;20104;-66
2023/06/06 02:57:46;;;;;;;14.50;9.23;;;;;;;12.69;76.41;101784.94;3580028;39;20112;-66
2023/06/06 03:00:12;;;;;;;13.52;9.00;;;;;;;12.68;76.93;101783.19;3581021;39;20628;-66
2023/06/06 03:02:38;;;;;;;15.18;9.55;;;;;;;12.68;76.34;101783.19;3583222;39;20064;-66
2023/06/06 03:05:04;;;;;;;13.68;9.45;;;;;;;12.65;76.40;101785.19;3581125;39;20155;-67
2023/06/06 03:07:30;;;;;;;13.00;8.95;;;;;;;12.62;75.96;101782.66;3580115;39;20093;-67
2023/06/06 03:09:56;;;;;;;14.00;9.73;;;;;;;12.42;76.32;101754.09;3584405;39;20113;-66
2023/06/06 03:12:21;;;;;;;12.93;9.55;;;;;;;12.51;76.43;101781.44;3582894;39;20104;-66
2023/06/06 03:14:47;;;;;;;14.43;8.63;;;;;;;12.54;76.49;101789.34;3580231;39;20396;-66
2023/06/06 03:17:13;;;;;;;11.25;9.10;;;;;;;12.56;76.37;101783.91;3581196;39;20079;-67
2023/06/06 03:19:38;;;;;;;12.88;9.45;;;;;;;12.52;76.47;101776.91;3582292;39;20075;-66
2023/06/06 03:22:05;;;;;;;14.95;8.73;;;;;;;12.49;76.22;101783.31;3581503;39;21060;-67
2023/06/06 03:24:33;;;;;;;12.48;9.05;;;;;;;12.46;76.20;101777.22;3581726;39;21025;-66
2023/06/06 03:27:00;;;;;;;12.07;9.10;;;;;;;12.46;76.59;101780.81;3586315;39;20102;-67
2023/06/06 03:29:25;;;;;;;12.93;8.95;;;;;;;12.43;77.24;101778.28;3582861;39;20282;-68
2023/06/06 03:31:51;;;;;;;13.00;8.75;;;;;;;12.41;77.13;101777.50;3581089;39;20074;-68
2023/06/06 03:34:17;;;;;;;11.70;9.25;;;;;;;12.38;76.54;101784.88;3580114;39;20056;-68
2023/06/06 03:36:43;;;;;;;12.63;8.90;;;;;;;12.39;76.47;101782.09;3578811;39;20123;-68
2023/06/06 03:39:09;;;;;;;12.13;8.85;;;;;;;12.40;76.22;101773.06;3574259;39;20066;-68
2023/06/06 03:41:34;;;;;;;14.88;9.32;;;;;;;12.39;76.43;101782.09;3581379;39;20067;-67
2023/06/06 03:44:00;;;;;;;13.65;8.55;;;;;;;11.95;76.89;101706.31;3582031;39;20062;-68
2023/06/06 03:46:26;;;;;;;12.60;9.07;;;;;;;12.31;76.72;101771.72;3573677;39;20055;-68
2023/06/06 03:48:51;;;;;;;11.77;9.52;;;;;;;12.27;77.18;101771.97;3585836;39;20411;-68
2023/06/06 03:51:17;;;;;;;10.73;8.38;;;;;;;12.38;76.96;101795.66;3584992;39;20066;-68
2023/06/06 03:53:43;;;;;;;11.77;8.80;;;;;;;12.32;76.58;101786.94;3578251;39;20064;-68
2023/06/06 03:56:09;;;;;;;11.30;8.88;;;;;;;12.30;77.06;101788.88;3585120;39;20055;-68
2023/06/06 03:58:36;;;;;;;13.10;9.45;;;;;;;12.26;77.09;101781.03;3583080;39;20352;-68
2023/06/06 04:01:02;;;;;;;13.10;8.98;;;;;;;12.32;76.58;101786.94;3584142;39;20056;-69
2023/06/06 04:03:29;;;;;;;13.98;9.20;;;;;;;12.35;76.58;101788.63;3582136;39;20063;-68
2023/06/06 04:05:54;;;;;;;12.93;9.45;;;;;;;12.36;76.82;101798.44;3580937;39;20082;-68
2023/06/06 04:08:20;;;;;;;14.07;9.50;;;;;;;12.36;77.07;101790.34;3582107;39;20321;-68
2023/06/06 04:10:46;;;;;;;13.43;8.90;;;;;;;12.35;76.39;101790.44;3573503;39;20060;-68
2023/06/06 04:13:12;;;;;;;12.05;8.82;;;;;;;12.34;77.15;101777.91;3582986;39;20048;-68
2023/06/06 04:15:37;;;;;;;13.27;8.90;;;;;;;12.32;76.47;101795.03;3584910;39;20055;-68
2023/06/06 04:18:04;;;;;;;11.20;8.48;;;;;;;11.99;77.17;101738.44;3583738;39;20577;-68
2023/06/06 04:20:32;;;;;;;12.55;9.13;;;;;;;12.29;76.84;101797.91;3582560;39;20056;-68
2023/06/06 04:23:00;;;;;;;13.05;9.23;;;;;;;12.29;77.46;101792.50;3572854;39;20044;-68
2023/06/06 04:25:26;;;;;;;12.18;9.50;;;;;;;12.28;76.76;101790.78;3581271;39;20115;-67
2023/06/06 04:27:52;;;;;;;13.20;8.90;;;;;;;12.32;76.95;101797.72;3579585;39;20488;-67
2023/06/06 04:30:22;;;;;;;13.07;8.85;;;;;;;12.32;77.44;101789.66;3572104;40;20056;-66
2023/06/06 04:32:51;;;;;;;16.30;9.57;;;;;;;12.32;76.72;101797.72;3581375;39;20064;-65
2023/06/06 04:35:16;;;;;;;12.60;9.25;;;;;;;11.72;77.52;101681.44;3579970;39;20063;-65
2023/06/06 04:37:43;;;;;;;11.05;8.77;;;;;;;12.37;77.19;101799.31;3583886;39;20072;-65
2023/06/06 04:40:10;;;;;;;12.18;9.82;;;;;;;12.37;76.65;101785.81;3585901;39;22061;-66
2023/06/06 04:42:36;;;;;;;12.27;8.85;;;;;;;12.23;76.78;101767.69;3584786;40;20087;-66
2023/06/06 04:45:03;;;;;;;13.70;9.20;;;;;;;12.38;76.97;101788.44;3586712;39;20075;-66
2023/06/06 04:47:31;;;;;;;15.15;9.18;;;;;;;12.45;76.57;101791.69;3581272;39;20083;-68
2023/06/06 04:49:58;;;;;;;13.18;9.07;;;;;;;12.52;77.06;101795.78;3580320;39;20127;-68
2023/06/06 04:52:24;;;;;;;12.32;8.77;;;;;;;12.56;77.14;101789.28;3575314;40;20066;-68
2023/06/06 04:54:51;;;;;;;12.18;9.20;;;;;;;12.60;75.99;101790.84;3588390;39;20054;-67
2023/06/06 04:57:19;;;;;;;12.98;8.95;;;;;;;12.51;75.91;101770.63;3583719;39;20070;-67
2023/06/06 04:59:52;;;;;;;12.30;9.05;;;;;;;12.69;76.12;101797.56;3587868;39;20090;-67
2023/06/06 05:02:23;;;;;;;13.23;9.98;;;;;;;12.69;75.42;101792.19;3582080;39;20056;-68
2023/06/06 05:04:55;;;;;;;12.68;9.70;;;;;;;12.32;75.70;101729.47;3581942;39;20105;-67
2023/06/06 05:07:25;;;;;;;13.10;8.98;;;;;;;12.72;75.93;101800.09;3583140;39;20399;-68
2023/06/06 05:09:52;;;;;;;12.73;8.82;;;;;;;12.77;75.94;101798.88;3576904;39;20410;-70
2023/06/06 05:12:17;;;;;;;12.27;9.35;;;;;;;12.64;75.35;101762.75;3584336;39;20087;-68
2023/06/06 05:14:43;;;;;;;16.50;9.80;;;;;;;12.87;75.26;101795.66;3576629;39;20389;-68
2023/06/06 05:17:10;;;;;;;13.80;9.35;;;;;;;12.90;74.88;101799.06;3585572;39;20381;-67
2023/06/06 05:19:35;;;;;;;15.35;9.13;;;;;;;12.98;74.78;101801.34;3582853;39;20075;-67
2023/06/06 05:22:01;;;;;;;14.73;9.50;;;;;;;13.01;74.92;101795.78;3580579;39;20064;-68
2023/06/06 05:24:26;;;;;;;11.30;8.63;;;;;;;13.09;74.16;101798.88;3584684;39;20389;-69
2023/06/06 05:26:52;;;;;;;12.95;9.55;;;;;;;13.06;73.78;101799.06;3584557;39;20059;-67
2023/06/06 05:29:18;;;;;;;13.55;9.90;;;;;;;13.03;74.23;101799.22;3585176;39;20068;-68
2023/06/06 05:31:43;;;;;;;13.52;10.15;;;;;;;12.91;74.08;101772.97;3590145;39;20064;-68
2023/06/06 05:34:09;;;;;;;12.52;9.10;;;;;;;13.15;74.01;101809.34;3585106;39;20381;-67
2023/06/06 05:36:35;;;;;;;13.15;9.80;;;;;;;13.20;73.87;101798.28;3584241;39;20256;-68
2023/06/06 05:39:01;;;;;;;15.23;10.38;;;;;;;13.22;73.52;101805.34;3586741;39;20121;-67
2023/06/06 05:41:26;;;;;;;14.85;9.85;;;;;;;13.21;73.40;101802.72;3586803;39;20381;-68
2023/06/06 05:43:52;;;;;;;14.48;9.43;;;;;;;13.35;73.99;101810.06;3588662;39;20063;-68
2023/06/06 05:46:19;;;;;;;14.45;9.93;;;;;;;13.42;73.36;101806.06;3585307;39;20551;-67
2023/06/06 05:48:45;;;;;;;14.05;10.15;;;;;;;13.43;72.52;101815.91;3582086;39;20330;-67
2023/06/06 05:51:10;;;;;;;14.88;10.35;;;;;;;13.45;72.57;101819.41;3584090;39;20132;-69
2023/06/06 05:53:45;;;;;;;12.73;10.25;;;;;;;13.20;72.58;101768.59;3582124;39;20056;-70
2023/06/06 05:56:13;;;;;;;13.00;8.95;;;;;;;13.60;72.66;101812.19;3584538;39;20455;-71
2023/06/06 05:58:40;;;;;;;15.30;9.85;;;;;;;13.65;72.43;101813.69;3584211;39;20250;-70
2023/06/06 06:01:06;;;;;;;14.32;9.60;;;;;;;13.40;72.26;101756.66;3581143;39;20052;-70
2023/06/06 06:03:33;;;;;;;14.18;9.43;;;;;;;13.86;71.39;101811.53;3571963;40;20129;-70
2023/06/06 06:06:04;;;;;;;16.60;9.88;;;;;;;13.92;71.16;101818.38;3583405;39;20047;-70
2023/06/06 06:08:31;;;;;;;11.50;8.98;;;;;;;14.01;71.44;101809.72;3589974;39;20586;-70
2023/06/06 06:10:57;;;;;;;13.35;9.68;;;;;;;14.10;71.03;101811.88;3581826;39;20516;-70
2023/06/06 06:13:22;;;;;;;13.27;9.40;;;;;;;14.12;70.77;101799.16;3581047;39;20059;-70
2023/06/06 06:15:48;;;;;;;14.15;9.57;;;;;;;13.56;69.82;101689.09;3584713;39;20054;-70
2023/06/06 06:18:14;;;;;;;14.68;9.80;;;;;;;14.42;70.32;101818.97;3586073;39;20061;-69
2023/06/06 06:20:40;;;;;;;13.57;9.30;;;;;;;14.54;68.80;101815.53;3585407;39;20107;-70
2023/06/06 06:23:06;;;;;;;11.82;9.13;;;;;;;14.65;68.78;101814.84;3585299;39;20055;-69
2023/06/06 06:25:31;;;;;;;13.55;9.52;;;;;;;14.75;68.83;101818.75;3585073;39;20051;-69
2023/06/06 06:27:57;;;;;;;12.00;9.30;;;;;;;14.85;67.59;101822.59;3581687;39;20385;-69
2023/06/06 06:30:23;;;;;;;13.13;9.63;;;;;;;14.94;67.73;101822.00;3579870;39;20082;-69
2023/06/06 06:32:48;;;;;;;15.02;8.82;;;;;;;14.79;67.25;101777.84;3583351;39;20055;-69
2023/06/06 06:35:14;;;;;;;11.07;8.98;;;;;;;15.16;66.66;101826.03;3585928;39;20047;-69
2023/06/06 06:37:40;;;;;;;11.32;8.82;;;;;;;15.27;66.73;101812.66;3586431;39;20601;-70
2023/06/06 06:40:10;;;;;;;11.25;9.20;;;;;;;15.43;66.81;101821.50;3582982;39;20067;-69
2023/06/06 06:42:41;;;;;;;14.88;10.13;;;;;;;15.26;66.74;101768.44;3579282;39;20536;-69
2023/06/06 06:45:13;;;;;;;11.75;9.18;;;;;;;15.73;65.22;101820.44;3581857;39;20047;-69
2023/06/06 06:47:40;;;;;;;15.10;9.90;;;;;;;15.84;65.31;101823.31;3582225;39;20398;-69
2023/06/06 06:50:07;;;;;;;13.45;9.15;;;;;;;15.82;64.36;101798.13;3587772;39;20047;-69
2023/06/06 06:52:35;;;;;;;13.73;9.15;;;;;;;16.11;64.62;101833.22;3585226;39;20071;-69
2023/06/06 06:55:04;;;;;;;13.05;9.38;;;;;;;16.23;63.20;101833.25;3582062;39;20063;-69
2023/06/06 06:57:30;;;;;;;11.27;8.38;;;;;;;16.10;63.10;101791.66;3581978;39;20048;-69
2023/06/06 06:59:57;;;;;;;12.57;9.45;;;;;;;16.46;63.77;101830.78;3582235;39;20496;-68
2023/06/06 07:02:26;;;;;;;10.90;8.90;;;;;;;16.62;62.65;101827.84;3582480;39;20061;-69
2023/06/06 07:04:59;;;;;;;12.90;8.55;;;;;;;16.85;61.88;101837.94;3586968;39;20503;-69
2023/06/06 07:07:25;;;;;;;13.02;9.02;;;;;;;17.02;61.35;101833.13;3583849;39;20291;-68
2023/06/06 07:09:52;;;;;;;11.90;8.70;;;;;;;16.92;60.76;101803.94;3580067;39;20052;-68
2023/06/06 07:12:20;;;;;;;11.63;8.38;;;;;;;17.24;60.21;101829.72;3583870;39;20052;-69
2023/06/06 07:14:45;;;;;;;10.93;8.65;;;;;;;17.26;60.91;101831.34;3582106;39;20048;-69
2023/06/06 07:17:11;;;;;;;10.73;8.20;;;;;;;17.36;60.31;101840.53;3582380;39;20051;-68
2023/06/06 07:19:37;;;;;;;11.65;8.80;;;;;;;17.45;59.29;101827.25;3582145;39;20064;-68
2023/06/06 07:22:04;;;;;;;12.48;8.68;;;;;;;17.62;59.85;101832.28;3580299;40;20192;-67
2023/06/06 07:24:31;;;;;;;12.57;9.02;;;;;;;17.79;58.42;101829.19;3583782;39;20458;-68
2023/06/06 07:26:57;;;;;;;11.85;8.82;;;;;;;17.91;58.89;101827.38;3581299;39;20476;-68
2023/06/06 07:29:23;;;;;;;12.00;8.75;;;;;;;17.85;57.56;101831.41;3581838;39;20718;-68
2023/06/06 07:31:50;;;;;;;12.77;8.23;;;;;;;17.81;57.80;101819.03;3579856;40;20445;-68
2023/06/06 07:34:15;;;;;;;10.32;8.45;;;;;;;17.95;57.20;101828.00;3581630;40;20301;-68
2023/06/06 07:36:41;;;;;;;11.80;8.77;;;;;;;18.10;58.32;101826.81;3580793;40;20064;-68
2023/06/06 07:39:08;;;;;;;12.98;8.60;;;;;;;18.13;57.21;101815.69;3577766;40;20418;-67
2023/06/06 07:41:33;;;;;;;14.50;8.60;;;;;;;18.29;57.21;101826.25;3579950;39;20079;-69
2023/06/06 07:44:01;;;;;;;14.35;8.63;;;;;;;18.38;56.98;101813.78;3580390;39;20056;-67
2023/06/06 07:46:27;;;;;;;13.40;8.80;;;;;;;18.36;57.12;101793.97;3583279;40;20201;-68
2023/06/06 07:48:53;;;;;;;12.50;8.10;;;;;;;18.64;57.06;101815.28;3585205;39;20052;-68
2023/06/06 07:51:19;;;;;;;11.02;8.80;;;;;;;18.76;56.05;101808.88;3582732;40;20308;-67
2023/06/06 07:53:45;;;;;;;10.73;8.20;;;;;;;18.93;56.42;101798.47;3581256;40;20181;-67
2023/06/06 07:56:14;;;;;;;9.40;7.95;;;;;;;19.10;54.49;101817.03;3581938;40;20458;-67
2023/06/06 07:58:41;;;;;;;11.30;8.27;;;;;;;18.94;54.36;101771.09;3580046;39;20067;-68
2023/06/06 08:01:10;;;;;;;12.63;9.10;;;;;;;19.05;54.63;101770.19;3579827;40;20052;-68
2023/06/06 08:03:37;;;;;;;12.57;8.27;;;;;;;19.18;55.03;101775.50;3582501;39;20142;-68
2023/06/06 08:06:03;;;;;;;11.13;7.97;;;;;;;19.57;53.44;101804.03;3579727;39;20081;-68
2023/06/06 08:08:29;;;;;;;11.15;8.77;;;;;;;19.66;53.86;101797.84;3582920;39;20052;-68
2023/06/06 08:10:55;;;;;;;11.43;8.40;;;;;;;19.88;52.92;101807.75;3579641;39;20051;-67
2023/06/06 08:13:20;;;;;;;12.00;8.30;;;;;;;19.89;52.36;101795.88;3585792;39;20055;-68
2023/06/06 08:15:46;;;;;;;11.88;7.55;;;;;;;20.15;52.54;101801.78;3584453;40;20112;-67
2023/06/06 08:18:16;;;;;;;12.38;8.80;;;;;;;20.36;51.39;101809.09;3583681;39;20280;-68
2023/06/06 08:20:41;;;;;;;13.80;8.30;;;;;;;20.41;51.19;101799.50;3581101;40;20056;-68
2023/06/06 08:23:07;;;;;;;11.60;8.00;;;;;;;20.52;51.12;101797.72;3579075;40;20386;-67
2023/06/06 08:25:42;;;;;;;10.25;8.13;;;;;;;20.71;51.79;101796.94;3585449;39;20477;-68
2023/06/06 08:28:07;;;;;;;11.57;8.40;;;;;;;20.92;49.07;101814.16;3584730;39;20051;-67
2023/06/06 08:30:33;;;;;;;12.32;7.72;;;;;;;21.10;49.98;101804.28;3584821;39;20405;-68
2023/06/06 08:32:58;;;;;;;10.75;7.82;;;;;;;21.17;50.55;101804.59;3582882;40;20068;-68
2023/06/06 08:35:24;;;;;;;11.57;8.07;;;;;;;21.34;48.66;101797.56;3585656;40;20124;-68
2023/06/06 08:37:50;;;;;;;11.63;7.57;;;;;;;21.19;49.75;101755.25;3583954;39;20430;-68
2023/06/06 08:40:16;;;;;;;10.23;7.63;;;;;;;21.58;49.32;101799.09;3584661;39;20366;-68
2023/06/06 08:42:51;;;;;;;10.98;7.35;;;;;;;21.72;48.32;101799.50;3583210;40;20354;-68
2023/06/06 08:45:22;;;;;;;11.18;7.40;;;;;;;21.88;48.67;101782.50;3585243;40;20240;-68
2023/06/06 08:47:49;;;;;;;10.52;8.07;;;;;;;22.21;48.20;101807.75;3574011;40;20060;-68
2023/06/06 08:50:16;;;;;;;9.07;7.78;;;;;;;22.27;47.14;101803.56;3583663;40;20317;-68
2023/06/06 08:52:42;;;;;;;9.23;7.43;;;;;;;22.20;47.57;101811.47;3581157;40;20466;-67
2023/06/06 08:55:09;;;;;;;10.75;7.30;;;;;;;22.03;47.03;101783.78;3585352;39;20487;-68
2023/06/06 08:57:41;;;;;;;10.57;7.60;;;;;;;21.96;47.17;101771.69;3583021;40;20125;-68
2023/06/06 09:00:18;;;;;;;9.70;7.13;;;;;;;22.33;46.72;101790.13;3583623;40;20085;-68
2023/06/06 09:02:47;;;;;;;9.18;7.05;;;;;;;22.59;46.73;101801.28;3583631;39;20115;-69
2023/06/06 09:05:18;;;;;;;10.65;7.60;;;;;;;22.61;46.11;101798.38;3584449;39;20044;-68
2023/06/06 09:07:47;;;;;;;9.30;7.45;;;;;;;22.85;45.73;101800.59;3583244;39;20055;-69
2023/06/06 09:10:13;;;;;;;12.68;7.55;;;;;;;22.92;46.21;101798.97;3584533;40;20107;-67
2023/06/06 09:12:48;;;;;;;10.32;7.97;;;;;;;22.97;45.40;101793.09;3584151;40;20054;-68
2023/06/06 09:15:14;;;;;;;12.73;7.22;;;;;;;23.14;46.51;101797.75;3584071;40;20052;-69
2023/06/06 09:17:45;;;;;;;11.18;7.50;;;;;;;23.23;43.90;101804.19;3583051;39;20060;-68
2023/06/06 09:20:15;;;;;;;8.68;6.97;;;;;;;23.18;45.16;101779.94;3582629;40;20052;-68
2023/06/06 09:22:43;;;;;;;15.13;7.15;;;;;;;23.05;45.79;101763.84;3582514;39;20070;-68
2023/06/06 09:25:27;;;;;;;9.30;7.25;;;;;;;23.53;44.05;101800.22;3584363;39;20067;-68
2023/06/06 09:28:03;;;;;;;8.52;6.72;;;;;;;23.65;45.24;101788.00;3583194;39;20329;-69
2023/06/06 09:30:32;;;;;;;9.75;6.68;;;;;;;23.96;42.93;101801.34;3580049;40;20121;-68
2023/06/06 09:33:04;;;;;;;10.75;7.28;;;;;;;24.03;42.27;101792.31;3582668;40;20481;-66
2023/06/06 09:35:35;;;;;;;12.10;7.18;;;;;;;24.08;42.30;101794.59;3584186;39;20047;-67
2023/06/06 09:38:18;;;;;;;10.52;7.13;;;;;;;24.20;43.46;101784.19;3582225;39;20392;-69
2023/06/06 09:40:51;;;;;;;10.37;7.20;;;;;;;24.41;43.65;101786.56;3583897;40;20055;-68
2023/06/06 09:43:24;;;;;;;9.50;6.38;;;;;;;24.46;43.98;101784.25;3584444;40;22226;-69
2023/06/06 09:45:55;;;;;;;7.75;6.65;;;;;;;24.52;41.25;101791.84;3583097;40;20052;-67
2023/06/06 09:48:23;;;;;;;8.88;6.25;;;;;;;24.71;42.87;101791.59;3583173;40;20051;-68
2023/06/06 09:50:50;;;;;;;9.75;6.68;;;;;;;24.81;42.35;101785.97;3583761;39;20077;-68
2023/06/06 09:53:16;;;;;;;9.25;6.55;;;;;;;24.91;41.29;101781.19;3585120;40;20052;-69
2023/06/06 09:55:43;;;;;;;10.13;6.38;;;;;;;25.03;40.59;101787.28;3584104;39;20052;-69
2023/06/06 09:58:20;;;;;;;9.50;6.05;;;;;;;25.28;40.08;101776.34;3582802;40;20503;-68
2023/06/06 10:00:48;;;;;;;9.45;6.65;;;;;;;25.38;40.08;101777.09;3583805;39;20059;-67
2023/06/06 10:03:22;;;;;;;8.70;6.05;;;;;;;25.44;40.98;101776.41;3581735;39;20068;-68
2023/06/06 10:05:50;;;;;;;9.65;6.10;;;;;;;25.68;39.45;101781.94;3583629;39;20103;-69
2023/06/06 10:08:21;;;;;;;8.60;6.60;;;;;;;25.81;39.11;101766.81;3580040;39;20060;-67
2023/06/06 10:10:49;;;;;;;8.82;6.18;;;;;;;25.84;39.01;101767.34;3584626;40;20052;-67
2023/06/06 10:13:17;;;;;;;9.15;6.63;;;;;;;25.82;39.96;101771.31;3585767;39;20469;-69
2023/06/06 10:15:44;;;;;;;11.18;6.47;;;;;;;25.95;38.92;101757.03;3582838;40;20413;-68
2023/06/06 10:18:10;;;;;;;9.27;6.78;;;;;;;26.02;39.81;101778.19;3571719;39;20694;-68
2023/06/06 10:20:37;;;;;;;9.70;6.63;;;;;;;26.02;38.17;101771.81;3581601;39;20129;-68
2023/06/06 10:23:04;;;;;;;8.35;6.22;;;;;;;26.15;39.09;101767.50;3582962;39;20064;-69
2023/06/06 10:25:31;;;;;;;12.10;7.13;;;;;;;26.35;40.35;101769.88;3583858;39;20103;-69
2023/06/06 10:28:29;;;;;;;10.30;6.68;;;;;;;26.05;38.77;101703.44;3582331;39;20149;-68
2023/06/06 10:31:14;;;;;;;8.07;6.47;;;;;;;26.47;38.18;101770.38;3582321;39;20058;-68
2023/06/06 10:33:54;;;;;;;8.52;6.40;;;;;;;26.53;39.04;101762.28;3584119;39;20196;-67
2023/06/06 10:36:20;;;;;;;7.22;5.78;;;;;;;26.45;39.06;101718.16;3585291;39;20107;-69
2023/06/06 10:39:21;;;;;;;8.52;6.13;;;;;;;26.85;37.89;101766.81;3585192;39;20059;-67
2023/06/06 10:41:54;;;;;;;11.05;6.22;;;;;;;27.08;37.63;101772.41;3577721;39;20055;-67
2023/06/06 10:44:40;;;;;;;11.35;6.53;;;;;;;27.13;37.02;101762.72;3583655;39;20362;-67
2023/06/06 10:47:20;;;;;;;9.38;5.53;;;;;;;27.29;36.77;101768.19;3581303;39;20044;-69
2023/06/06 10:50:07;;;;;;;7.88;5.70;;;;;;;27.41;37.14;101761.19;3586011;39;20467;-68
2023/06/06 10:52:55;;;;;;;7.05;5.22;;;;;;;27.49;38.23;101766.66;3582516;39;20392;-68
2023/06/06 10:55:24;;;;;;;8.23;5.50;;;;;;;27.63;38.20;101765.00;3585544;39;20046;-69
2023/06/06 10:57:53;;;;;;;5.82;5.22;;;;;;;27.59;36.11;101757.25;3583637;39;20062;-69
2023/06/06 11:00:25;;;;;;;7.97;5.53;;;;;;;27.68;36.39;101756.16;3584748;39;20341;-69
2023/06/06 11:03:00;;;;;;;8.97;5.43;;;;;;;27.85;36.54;101757.78;3586889;39;20059;-69
2023/06/06 11:05:25;;;;;;;7.55;5.47;;;;;;;27.91;34.82;101754.28;3590699;39;20067;-68
2023/06/06 11:07:58;;;;;;;7.75;5.70;;;;;;;27.97;34.51;101749.88;3585195;39;20070;-69
2023/06/06 11:10:24;;;;;;;5.68;4.88;;;;;;;28.05;35.38;101757.25;3584228;39;20052;-69
2023/06/06 11:12:50;;;;;;;6.30;5.30;;;;;;;28.19;33.95;101751.75;3583021;39;20312;-69
2023/06/06 11:15:34;;;;;;;7.03;4.93;;;;;;;28.31;35.38;101749.38;3586446;39;20056;-69
2023/06/06 11:18:04;;;;;;;7.82;5.28;;;;;;;28.33;34.62;101739.00;3582426;39;20280;-69
2023/06/06 11:20:42;;;;;;;7.95;5.10;;;;;;;28.50;35.16;101739.69;3586642;39;20056;-69
2023/06/06 11:23:11;;;;;;;7.90;5.70;;;;;;;28.64;33.17;101740.72;3583866;39;20055;-69
2023/06/06 11:25:37;;;;;;;7.47;4.68;;;;;;;28.71;34.74;101730.63;3586233;39;20047;-69